Time;durP1;ratioP1;P1;durP2;ratioP2;P2;SDS_P1;SDS_P2;PMS_P1;PMS_P2;Temp;Humidity;BMP_temperature;BMP_pressure;BME280_temperature;BME280_humidity;BME280_pressure;Samples;Min_cycle;Max_cycle;Signal;HPM_P1;HPM_P2
2021/11/27 00:00:42;;;;;;;8.55;4.03;;;;;;;;;;5046902;28;20018;-83
2021/11/27 00:03:08;;;;;;;4.20;3.90;;;;;;;;;;5024230;28;20022;-81
2021/11/27 00:05:34;;;;;;;5.80;5.28;;;;;;;;;;5018833;28;20072;-85
2021/11/27 00:08:00;;;;;;;5.93;3.95;;;;;;;;;;5031098;28;20018;-84
2021/11/27 00:10:27;;;;;;;7.70;6.53;;;;;;;;;;5026353;28;20029;-83
2021/11/27 00:12:53;;;;;;;4.28;3.97;;;;;;;;;;5016403;28;20048;-83
2021/11/27 00:15:19;;;;;;;4.78;4.38;;;;;;;;;;5031395;28;20053;-82
2021/11/27 00:17:44;;;;;;;6.03;4.22;;;;;;;;;;5028113;28;20045;-83
2021/11/27 00:20:12;;;;;;;4.15;3.85;;;;;;;;;;5014814;28;20048;-82
2021/11/27 00:22:38;;;;;;;4.45;3.55;;;;;;;;;;5031429;28;20477;-82
2021/11/27 00:25:03;;;;;;;3.63;3.33;;;;;;;;;;5031475;28;20082;-82
2021/11/27 00:27:29;;;;;;;4.07;3.60;;;;;;;;;;5024997;28;20014;-81
2021/11/27 00:29:55;;;;;;;3.75;3.55;;;;;;;;;;5011559;28;20467;-82
2021/11/27 00:32:21;;;;;;;4.82;3.80;;;;;;;;;;5025270;28;20013;-82
2021/11/27 00:34:46;;;;;;;3.72;3.45;;;;;;;;;;5026195;28;20018;-81
2021/11/27 00:37:11;;;;;;;6.50;5.15;;;;;;;;;;5027278;28;20390;-81
2021/11/27 00:39:37;;;;;;;4.68;2.65;;;;;;;;;;5018436;28;20077;-80
2021/11/27 00:42:02;;;;;;;9.55;5.57;;;;;;;;;;5030447;28;20112;-79
2021/11/27 00:44:27;;;;;;;4.55;4.07;;;;;;;;;;5017363;28;20018;-79
2021/11/27 00:46:53;;;;;;;4.03;3.70;;;;;;;;;;5032944;28;20097;-81
2021/11/27 00:49:18;;;;;;;6.05;5.50;;;;;;;;;;5032010;28;20022;-81
2021/11/27 00:51:44;;;;;;;5.50;3.35;;;;;;;;;;5014844;28;20488;-81
2021/11/27 00:54:09;;;;;;;6.45;4.30;;;;;;;;;;5014812;28;20045;-80
2021/11/27 00:56:35;;;;;;;6.32;4.57;;;;;;;;;;5024823;28;20023;-81
2021/11/27 00:59:01;;;;;;;5.65;5.15;;;;;;;;;;5031090;28;20030;-80
2021/11/27 01:01:27;;;;;;;5.32;4.95;;;;;;;;;;5021541;28;20067;-82
2021/11/27 01:03:53;;;;;;;4.15;3.90;;;;;;;;;;5034359;28;20025;-82
2021/11/27 01:06:20;;;;;;;4.00;3.60;;;;;;;;;;5029761;28;20014;-81
2021/11/27 01:08:46;;;;;;;7.93;5.18;;;;;;;;;;5015266;28;20026;-81
2021/11/27 01:11:11;;;;;;;3.35;3.08;;;;;;;;;;5030192;28;20501;-82
2021/11/27 01:13:38;;;;;;;3.13;2.87;;;;;;;;;;5016087;28;20049;-81
2021/11/27 01:16:03;;;;;;;8.13;3.22;;;;;;;;;;5029717;28;20379;-82
2021/11/27 01:18:29;;;;;;;4.78;4.38;;;;;;;;;;5015026;28;20034;-82
2021/11/27 01:20:56;;;;;;;6.68;5.43;;;;;;;;;;5014460;28;20022;-82
2021/11/27 01:23:22;;;;;;;3.67;3.15;;;;;;;;;;5014374;28;20025;-81
2021/11/27 01:25:47;;;;;;;7.35;3.85;;;;;;;;;;5014355;28;20116;-81
2021/11/27 01:28:15;;;;;;;3.78;3.55;;;;;;;;;;5014561;28;20025;-81
2021/11/27 01:30:42;;;;;;;6.57;2.00;;;;;;;;;;5014325;28;20022;-80
2021/11/27 01:33:07;;;;;;;2.60;2.28;;;;;;;;;;5026205;28;20071;-81
2021/11/27 01:35:32;;;;;;;2.53;1.88;;;;;;;;;;5029781;28;20473;-81
2021/11/27 01:37:58;;;;;;;3.03;2.83;;;;;;;;;;5030129;28;20124;-80
2021/11/27 01:40:24;;;;;;;6.15;3.83;;;;;;;;;;5014991;28;20034;-80
2021/11/27 01:42:50;;;;;;;3.72;3.47;;;;;;;;;;5015645;28;20022;-80
2021/11/27 01:45:16;;;;;;;3.05;2.83;;;;;;;;;;5031649;28;20021;-80
2021/11/27 01:47:53;;;;;;;5.90;2.33;;;;;;;;;;5024399;28;20020;-80
2021/11/27 01:50:20;;;;;;;2.03;1.92;;;;;;;;;;5053127;28;20032;-80
2021/11/27 01:52:45;;;;;;;9.43;6.40;;;;;;;;;;5019574;28;20401;-81
2021/11/27 01:55:11;;;;;;;2.08;1.98;;;;;;;;;;5018125;28;20014;-82
2021/11/27 01:57:37;;;;;;;3.30;3.17;;;;;;;;;;5025327;28;20010;-82
2021/11/27 02:00:05;;;;;;;4.22;3.95;;;;;;;;;;5028082;28;20497;-82
2021/11/27 02:02:30;;;;;;;6.55;6.00;;;;;;;;;;5019332;28;20461;-82
2021/11/27 02:04:55;;;;;;;6.70;4.57;;;;;;;;;;5025123;28;20060;-82
2021/11/27 02:07:21;;;;;;;4.55;4.25;;;;;;;;;;5013794;28;20021;-82
2021/11/27 02:09:46;;;;;;;5.32;3.70;;;;;;;;;;5029625;28;20121;-81
2021/11/27 02:12:12;;;;;;;7.45;5.90;;;;;;;;;;5013314;28;20050;-82
2021/11/27 02:14:38;;;;;;;7.13;5.57;;;;;;;;;;5028955;28;20060;-81
2021/11/27 02:17:04;;;;;;;6.78;6.13;;;;;;;;;;5029873;28;20017;-81
2021/11/27 02:19:29;;;;;;;4.53;3.40;;;;;;;;;;5024069;28;20061;-84
2021/11/27 02:21:55;;;;;;;3.72;3.47;;;;;;;;;;5013286;28;20534;-83
2021/11/27 02:24:21;;;;;;;2.75;2.55;;;;;;;;;;5013381;28;20025;-83
2021/11/27 02:26:47;;;;;;;2.72;2.63;;;;;;;;;;5013208;28;20498;-82
2021/11/27 02:29:15;;;;;;;3.20;3.00;;;;;;;;;;5026184;28;20082;-82
2021/11/27 02:31:40;;;;;;;4.55;3.75;;;;;;;;;;5032178;28;20382;-81
2021/11/27 02:34:06;;;;;;;5.72;5.28;;;;;;;;;;5018833;28;20184;-82
2021/11/27 02:36:32;;;;;;;3.80;3.50;;;;;;;;;;5013119;28;20025;-82
2021/11/27 02:38:58;;;;;;;4.28;2.60;;;;;;;;;;5013577;28;20137;-82
2021/11/27 02:41:24;;;;;;;3.75;3.45;;;;;;;;;;5027315;28;20442;-81
2021/11/27 02:43:49;;;;;;;6.43;4.25;;;;;;;;;;5013360;28;20022;-82
2021/11/27 02:46:15;;;;;;;10.20;5.05;;;;;;;;;;5023297;28;20576;-82
2021/11/27 02:48:40;;;;;;;4.85;4.55;;;;;;;;;;5016329;28;20021;-82
2021/11/27 02:51:06;;;;;;;8.90;3.65;;;;;;;;;;5021506;28;20389;-81
2021/11/27 02:53:31;;;;;;;3.67;2.58;;;;;;;;;;5032302;28;20462;-82
2021/11/27 02:55:56;;;;;;;3.38;3.15;;;;;;;;;;5032125;28;20549;-81
2021/11/27 02:58:22;;;;;;;7.63;4.72;;;;;;;;;;5031942;28;20022;-82
2021/11/27 03:00:49;;;;;;;3.17;2.97;;;;;;;;;;5032461;28;20075;-81
2021/11/27 03:03:15;;;;;;;2.65;2.22;;;;;;;;;;5015990;28;20029;-82
2021/11/27 03:05:40;;;;;;;6.63;4.15;;;;;;;;;;5015246;28;20013;-81
2021/11/27 03:08:05;;;;;;;4.25;3.13;;;;;;;;;;5014170;28;20164;-81
2021/11/27 03:10:31;;;;;;;5.22;3.40;;;;;;;;;;5023985;28;20366;-80
2021/11/27 03:12:57;;;;;;;2.28;2.17;;;;;;;;;;5031830;28;20022;-82
2021/11/27 03:15:22;;;;;;;5.40;3.40;;;;;;;;;;5015117;28;20386;-81
2021/11/27 03:17:48;;;;;;;3.40;2.55;;;;;;;;;;5011676;28;20037;-81
2021/11/27 03:20:14;;;;;;;2.65;2.53;;;;;;;;;;5018551;28;20021;-80
2021/11/27 03:22:40;;;;;;;1.63;1.52;;;;;;;;;;5031958;28;20013;-82
2021/11/27 03:25:05;;;;;;;4.05;3.70;;;;;;;;;;5031994;28;20048;-80
2021/11/27 03:27:31;;;;;;;6.22;5.68;;;;;;;;;;5025597;28;20026;-81
2021/11/27 03:29:56;;;;;;;2.28;2.05;;;;;;;;;;5027528;28;20401;-82
2021/11/27 03:32:22;;;;;;;5.75;3.65;;;;;;;;;;5019261;28;20031;-82
2021/11/27 03:34:48;;;;;;;1.88;1.85;;;;;;;;;;5031684;28;20104;-82
2021/11/27 03:37:14;;;;;;;4.32;3.63;;;;;;;;;;5031722;28;20025;-81
2021/11/27 03:39:39;;;;;;;2.95;2.67;;;;;;;;;;5021890;28;20502;-81
2021/11/27 03:42:08;;;;;;;1.65;1.33;;;;;;;;;;5016722;28;20168;-81
2021/11/27 03:44:33;;;;;;;1.73;1.63;;;;;;;;;;5012067;28;20525;-80
2021/11/27 03:46:59;;;;;;;2.53;1.98;;;;;;;;;;5017891;28;20052;-82
2021/11/27 03:49:29;;;;;;;2.33;2.22;;;;;;;;;;5033342;28;20030;-80
2021/11/27 03:51:55;;;;;;;3.05;2.85;;;;;;;;;;5021816;28;20076;-82
2021/11/27 03:54:21;;;;;;;2.70;2.33;;;;;;;;;;5011718;28;20018;-81
2021/11/27 03:56:46;;;;;;;2.75;2.50;;;;;;;;;;5029283;28;20018;-81
2021/11/27 03:59:12;;;;;;;2.17;2.08;;;;;;;;;;5030936;28;20029;-81
2021/11/27 04:01:37;;;;;;;1.58;1.52;;;;;;;;;;5047909;28;20467;-81
2021/11/27 04:04:03;;;;;;;6.85;3.38;;;;;;;;;;5031563;28;20025;-80
2021/11/27 04:06:29;;;;;;;4.38;4.07;;;;;;;;;;5016056;28;20071;-80
2021/11/27 04:08:58;;;;;;;2.35;2.25;;;;;;;;;;5030149;28;20025;-80
2021/11/27 04:11:23;;;;;;;2.35;2.25;;;;;;;;;;5016825;28;20044;-80
2021/11/27 04:13:49;;;;;;;4.63;4.30;;;;;;;;;;5011752;28;20025;-80
2021/11/27 04:16:14;;;;;;;3.30;3.10;;;;;;;;;;5014018;28;20389;-80
2021/11/27 04:18:39;;;;;;;2.58;2.40;;;;;;;;;;5016987;28;20398;-80
2021/11/27 04:21:05;;;;;;;5.55;5.07;;;;;;;;;;5014002;28;20517;-82
2021/11/27 04:23:30;;;;;;;2.60;2.40;;;;;;;;;;5015308;28;20025;-79
2021/11/27 04:25:55;;;;;;;4.97;4.30;;;;;;;;;;5035169;28;20028;-80
2021/11/27 04:28:21;;;;;;;3.67;3.38;;;;;;;;;;5034399;28;20032;-82
2021/11/27 04:30:46;;;;;;;2.30;2.17;;;;;;;;;;5029426;28;20040;-81
2021/11/27 04:33:12;;;;;;;4.28;2.70;;;;;;;;;;5015220;28;20040;-79
2021/11/27 04:35:38;;;;;;;3.10;2.88;;;;;;;;;;5015000;28;20045;-80
2021/11/27 04:38:04;;;;;;;3.35;3.15;;;;;;;;;;5014814;28;20034;-80
2021/11/27 04:40:29;;;;;;;3.30;2.80;;;;;;;;;;5029519;28;20056;-80
2021/11/27 04:42:55;;;;;;;3.40;3.00;;;;;;;;;;5034434;28;20029;-80
2021/11/27 04:45:21;;;;;;;6.07;4.20;;;;;;;;;;5035851;28;20096;-81
2021/11/27 04:47:46;;;;;;;9.90;4.05;;;;;;;;;;5019097;28;20079;-81
2021/11/27 04:50:12;;;;;;;3.38;3.13;;;;;;;;;;5014651;28;20455;-82
2021/11/27 04:52:38;;;;;;;7.22;2.88;;;;;;;;;;5014791;28;20022;-81
2021/11/27 04:55:07;;;;;;;8.20;2.95;;;;;;;;;;5026424;28;20022;-81
2021/11/27 04:57:32;;;;;;;2.53;2.33;;;;;;;;;;5034761;28;20021;-81
2021/11/27 04:59:58;;;;;;;4.70;2.90;;;;;;;;;;5034267;28;20405;-81
2021/11/27 05:02:23;;;;;;;4.80;4.35;;;;;;;;;;5024510;28;20418;-82
2021/11/27 05:04:48;;;;;;;3.85;3.55;;;;;;;;;;5021507;28;20459;-82
2021/11/27 05:07:14;;;;;;;4.03;3.78;;;;;;;;;;5014580;28;20029;-81
2021/11/27 05:09:39;;;;;;;4.38;4.10;;;;;;;;;;5014695;28;20026;-83
2021/11/27 05:12:05;;;;;;;2.13;1.95;;;;;;;;;;5034365;28;20099;-81
2021/11/27 05:14:30;;;;;;;3.17;2.97;;;;;;;;;;5027024;28;20014;-83
2021/11/27 05:16:55;;;;;;;2.97;2.17;;;;;;;;;;5021442;28;20393;-82
2021/11/27 05:19:21;;;;;;;4.43;3.72;;;;;;;;;;5034456;28;20017;-83
2021/11/27 05:21:46;;;;;;;4.38;3.85;;;;;;;;;;5014219;28;20034;-80
2021/11/27 05:24:11;;;;;;;4.82;4.32;;;;;;;;;;5019868;28;20009;-82
2021/11/27 05:26:37;;;;;;;2.30;2.20;;;;;;;;;;5034309;28;20041;-81
2021/11/27 05:29:02;;;;;;;6.63;4.70;;;;;;;;;;5033969;28;20029;-82
2021/11/27 05:31:28;;;;;;;2.92;2.72;;;;;;;;;;5017802;28;20013;-80
2021/11/27 05:36:26;;;;;;;2.78;2.55;;;;;;;;;;5015453;28;20100;-81
2021/11/27 05:38:51;;;;;;;2.25;2.15;;;;;;;;;;5018113;28;20520;-84
2021/11/27 05:41:16;;;;;;;3.28;3.08;;;;;;;;;;5014278;28;20018;-81
2021/11/27 05:43:42;;;;;;;4.63;2.83;;;;;;;;;;5014156;28;20053;-81
2021/11/27 05:46:10;;;;;;;1.20;1.20;;;;;;;;;;5013237;28;20415;-83
2021/11/27 05:48:36;;;;;;;2.53;2.30;;;;;;;;;;5030216;28;20026;-83
2021/11/27 05:51:01;;;;;;;2.70;2.20;;;;;;;;;;5013538;28;20024;-82
2021/11/27 05:53:27;;;;;;;1.63;1.60;;;;;;;;;;5013688;28;20417;-81
2021/11/27 05:55:52;;;;;;;4.63;3.33;;;;;;;;;;5031402;28;20109;-80
2021/11/27 05:58:18;;;;;;;2.17;0.98;;;;;;;;;;5015241;28;20057;-83
2021/11/27 06:00:44;;;;;;;3.17;2.88;;;;;;;;;;5013660;28;20112;-80
2021/11/27 06:03:10;;;;;;;2.63;2.33;;;;;;;;;;5030733;28;20052;-80
2021/11/27 06:05:35;;;;;;;2.42;2.33;;;;;;;;;;5024637;28;20121;-80
2021/11/27 06:08:01;;;;;;;9.20;2.22;;;;;;;;;;5013081;28;20021;-81
2021/11/27 06:10:26;;;;;;;3.80;3.50;;;;;;;;;;5032228;28;20032;-80
2021/11/27 06:12:52;;;;;;;1.42;1.35;;;;;;;;;;5018430;28;20036;-80
2021/11/27 06:15:18;;;;;;;3.13;2.67;;;;;;;;;;5015352;28;20018;-81
2021/11/27 06:17:43;;;;;;;2.67;2.47;;;;;;;;;;5032059;28;20026;-81
2021/11/27 06:20:09;;;;;;;4.30;3.88;;;;;;;;;;5027594;28;20100;-81
2021/11/27 06:22:34;;;;;;;4.70;4.35;;;;;;;;;;5012969;28;20466;-82
2021/11/27 06:24:59;;;;;;;11.70;5.78;;;;;;;;;;5025682;28;20071;-81
2021/11/27 06:27:25;;;;;;;10.00;9.07;;;;;;;;;;5030299;28;20022;-82
2021/11/27 06:29:50;;;;;;;7.35;6.63;;;;;;;;;;5022539;28;20025;-81
2021/11/27 06:32:16;;;;;;;4.80;4.43;;;;;;;;;;5032196;28;20064;-81
2021/11/27 06:34:42;;;;;;;2.50;2.40;;;;;;;;;;5028160;28;20101;-80
2021/11/27 06:37:08;;;;;;;3.88;2.30;;;;;;;;;;5032341;28;20017;-81
2021/11/27 06:39:33;;;;;;;1.88;1.77;;;;;;;;;;5031188;28;20117;-81
2021/11/27 06:41:59;;;;;;;2.30;2.15;;;;;;;;;;5032080;28;20461;-81
2021/11/27 06:44:24;;;;;;;4.35;4.03;;;;;;;;;;5029005;28;20017;-81
2021/11/27 06:46:49;;;;;;;3.30;3.08;;;;;;;;;;5018346;28;20494;-81
2021/11/27 06:49:15;;;;;;;2.78;2.58;;;;;;;;;;5024427;28;20188;-81
2021/11/27 06:51:41;;;;;;;3.97;3.67;;;;;;;;;;5030242;28;20021;-79
2021/11/27 06:54:06;;;;;;;2.35;2.22;;;;;;;;;;5031669;28;20026;-79
2021/11/27 06:56:31;;;;;;;3.30;3.10;;;;;;;;;;5024224;28;20492;-81
2021/11/27 06:58:57;;;;;;;4.05;3.65;;;;;;;;;;5024388;28;20544;-81
2021/11/27 07:01:22;;;;;;;5.07;4.68;;;;;;;;;;5032173;28;20107;-79
2021/11/27 07:03:47;;;;;;;4.93;2.35;;;;;;;;;;5032444;28;20112;-79
2021/11/27 07:06:12;;;;;;;3.88;3.58;;;;;;;;;;5031252;28;20113;-81
2021/11/27 07:08:38;;;;;;;3.67;3.38;;;;;;;;;;5031756;28;20444;-81
2021/11/27 07:11:03;;;;;;;3.58;3.17;;;;;;;;;;5022672;28;20032;-81
2021/11/27 07:13:28;;;;;;;5.40;4.23;;;;;;;;;;5024905;28;20112;-80
2021/11/27 07:15:54;;;;;;;10.35;4.75;;;;;;;;;;5026166;28;20291;-81
2021/11/27 07:18:25;;;;;;;2.58;2.38;;;;;;;;;;5032182;28;20075;-80
2021/11/27 07:20:50;;;;;;;6.40;4.05;;;;;;;;;;5032824;28;20018;-80
2021/11/27 07:23:16;;;;;;;27.23;20.92;;;;;;;;;;5032071;28;20044;-79
2021/11/27 07:25:41;;;;;;;12.45;9.55;;;;;;;;;;5032160;28;20021;-81
2021/11/27 07:28:09;;;;;;;4.38;3.33;;;;;;;;;;5032151;28;20455;-81
2021/11/27 07:30:34;;;;;;;7.18;6.50;;;;;;;;;;5032707;28;20033;-81
2021/11/27 07:33:00;;;;;;;7.65;5.95;;;;;;;;;;5032075;28;20030;-80
2021/11/27 07:35:25;;;;;;;8.35;2.38;;;;;;;;;;5031833;28;20113;-80
2021/11/27 07:37:50;;;;;;;7.00;3.38;;;;;;;;;;5025013;28;20022;-80
2021/11/27 07:40:15;;;;;;;4.60;3.87;;;;;;;;;;5015957;28;20532;-79
2021/11/27 07:42:41;;;;;;;12.45;3.35;;;;;;;;;;5032461;28;20260;-80
2021/11/27 07:45:06;;;;;;;4.20;3.83;;;;;;;;;;5031502;28;20013;-80
2021/11/27 07:47:35;;;;;;;3.33;2.25;;;;;;;;;;5026761;28;20356;-79
2021/11/27 07:50:02;;;;;;;3.70;2.45;;;;;;;;;;5012488;28;20030;-80
2021/11/27 07:52:29;;;;;;;3.67;3.33;;;;;;;;;;5032323;28;20393;-80
2021/11/27 07:54:54;;;;;;;4.15;2.75;;;;;;;;;;5032883;28;20053;-81
2021/11/27 07:57:21;;;;;;;3.47;3.17;;;;;;;;;;5035496;28;20048;-80
2021/11/27 07:59:46;;;;;;;6.93;3.42;;;;;;;;;;5035693;28;20044;-79
2021/11/27 08:02:11;;;;;;;3.25;3.05;;;;;;;;;;5035586;28;20392;-80
2021/11/27 08:04:36;;;;;;;3.17;2.92;;;;;;;;;;5035772;28;20021;-81
2021/11/27 08:07:02;;;;;;;7.28;4.07;;;;;;;;;;5036487;28;20026;-79
2021/11/27 08:09:27;;;;;;;6.47;2.50;;;;;;;;;;5035399;28;20112;-80
2021/11/27 08:11:52;;;;;;;12.95;6.68;;;;;;;;;;5035786;28;20071;-79
2021/11/27 08:14:18;;;;;;;10.07;3.75;;;;;;;;;;5035785;28;20025;-80
2021/11/27 08:16:43;;;;;;;7.13;5.18;;;;;;;;;;5036711;28;20405;-81
2021/11/27 08:19:08;;;;;;;4.30;3.90;;;;;;;;;;5035827;28;20044;-79
2021/11/27 08:21:34;;;;;;;8.23;2.80;;;;;;;;;;5036188;28;20017;-81
2021/11/27 08:23:59;;;;;;;4.25;3.33;;;;;;;;;;5035799;28;20029;-78
2021/11/27 08:26:24;;;;;;;3.03;2.40;;;;;;;;;;5034496;28;20044;-78
2021/11/27 08:28:50;;;;;;;4.15;3.42;;;;;;;;;;5034965;28;20028;-79
2021/11/27 08:31:15;;;;;;;4.60;3.47;;;;;;;;;;5031105;28;20018;-80
2021/11/27 08:33:40;;;;;;;1.80;1.70;;;;;;;;;;5028251;28;20026;-79
2021/11/27 08:36:06;;;;;;;2.10;2.00;;;;;;;;;;5019123;28;20113;-78
2021/11/27 08:38:31;;;;;;;2.50;2.30;;;;;;;;;;5023382;28;20056;-80
2021/11/27 08:40:57;;;;;;;3.15;1.98;;;;;;;;;;5035730;28;20032;-81
2021/11/27 08:43:22;;;;;;;6.63;3.28;;;;;;;;;;5035140;28;20053;-81
2021/11/27 08:45:49;;;;;;;3.20;2.88;;;;;;;;;;5035813;28;20107;-83
2021/11/27 08:48:14;;;;;;;5.13;4.80;;;;;;;;;;5035112;28;20528;-81
2021/11/27 08:50:40;;;;;;;6.50;5.43;;;;;;;;;;5034614;28;20026;-82
2021/11/27 08:53:05;;;;;;;7.30;6.60;;;;;;;;;;5034163;28;20116;-82
2021/11/27 08:55:31;;;;;;;3.47;2.78;;;;;;;;;;5034809;28;20043;-80
2021/11/27 08:57:56;;;;;;;18.23;8.20;;;;;;;;;;5034830;28;20021;-81
2021/11/27 09:00:21;;;;;;;3.97;3.67;;;;;;;;;;5034600;28;20025;-81
2021/11/27 09:02:47;;;;;;;7.22;5.95;;;;;;;;;;5028713;28;20253;-82
2021/11/27 09:05:12;;;;;;;11.10;4.30;;;;;;;;;;5014693;28;20456;-81
2021/11/27 09:07:37;;;;;;;3.85;3.53;;;;;;;;;;5013830;28;20014;-80
2021/11/27 09:10:04;;;;;;;4.75;4.20;;;;;;;;;;5013710;28;20088;-83
2021/11/27 09:12:29;;;;;;;11.00;8.73;;;;;;;;;;5013754;28;20022;-83
2021/11/27 09:14:55;;;;;;;20.80;7.90;;;;;;;;;;5014175;28;20028;-82
2021/11/27 09:17:20;;;;;;;16.90;8.77;;;;;;;;;;5013868;28;20014;-84
2021/11/27 09:19:46;;;;;;;8.52;7.80;;;;;;;;;;5013662;28;20029;-83
2021/11/27 09:22:11;;;;;;;7.25;6.60;;;;;;;;;;5013837;28;20021;-85
2021/11/27 09:24:37;;;;;;;6.03;4.65;;;;;;;;;;5013913;28;20017;-82
2021/11/27 09:27:03;;;;;;;10.57;6.80;;;;;;;;;;5014011;28;20056;-82
2021/11/27 09:29:28;;;;;;;5.93;5.15;;;;;;;;;;5013858;28;20409;-82
2021/11/27 09:31:53;;;;;;;10.32;8.85;;;;;;;;;;5013567;28;20010;-83
2021/11/27 09:34:19;;;;;;;8.57;5.22;;;;;;;;;;5013564;28;20021;-82
2021/11/27 09:36:45;;;;;;;12.77;4.80;;;;;;;;;;5013827;28;20425;-83
2021/11/27 09:39:11;;;;;;;8.52;5.25;;;;;;;;;;5014802;28;20089;-83
2021/11/27 09:41:40;;;;;;;9.13;8.10;;;;;;;;;;5013618;28;20029;-82
2021/11/27 09:44:06;;;;;;;6.07;5.38;;;;;;;;;;5013740;28;20021;-82
2021/11/27 09:46:32;;;;;;;4.68;4.35;;;;;;;;;;5013707;28;20076;-81
2021/11/27 09:48:59;;;;;;;6.65;5.45;;;;;;;;;;5013406;28;20054;-81
2021/11/27 09:51:26;;;;;;;6.00;5.40;;;;;;;;;;5013140;28;20025;-82
2021/11/27 09:53:52;;;;;;;6.70;5.40;;;;;;;;;;5013617;28;20029;-82
2021/11/27 09:56:18;;;;;;;6.53;5.95;;;;;;;;;;5013729;28;20022;-83
2021/11/27 09:58:44;;;;;;;11.20;3.83;;;;;;;;;;5013527;28;20616;-82
2021/11/27 10:01:10;;;;;;;5.63;4.53;;;;;;;;;;5014887;28;20041;-81
2021/11/27 10:03:39;;;;;;;8.05;3.50;;;;;;;;;;5013333;28;20022;-82
2021/11/27 10:06:04;;;;;;;8.25;6.43;;;;;;;;;;5013181;28;20080;-82
2021/11/27 10:08:32;;;;;;;4.30;2.70;;;;;;;;;;5013669;28;20022;-81
2021/11/27 10:10:57;;;;;;;5.43;3.47;;;;;;;;;;5013431;28;20257;-83
2021/11/27 10:13:23;;;;;;;4.75;4.38;;;;;;;;;;5013578;28;20018;-82
2021/11/27 10:15:48;;;;;;;4.90;2.65;;;;;;;;;;5013456;28;20375;-81
2021/11/27 10:18:18;;;;;;;4.43;3.85;;;;;;;;;;5012734;28;20018;-81
2021/11/27 10:20:43;;;;;;;6.07;5.40;;;;;;;;;;5012716;28;20029;-82
2021/11/27 10:23:09;;;;;;;11.73;6.53;;;;;;;;;;5013297;28;20100;-81
2021/11/27 10:25:37;;;;;;;8.40;4.88;;;;;;;;;;5013244;28;20058;-80
2021/11/27 10:28:07;;;;;;;6.88;5.60;;;;;;;;;;5013108;28;20115;-81
2021/11/27 10:30:43;;;;;;;5.38;4.90;;;;;;;;;;5012750;28;20030;-80
2021/11/27 10:33:09;;;;;;;6.38;4.88;;;;;;;;;;5013103;28;20022;-81
2021/11/27 10:35:34;;;;;;;6.20;5.63;;;;;;;;;;5014064;28;20125;-82
2021/11/27 10:38:04;;;;;;;3.70;3.40;;;;;;;;;;5012987;28;20022;-80
2021/11/27 10:40:30;;;;;;;12.18;4.10;;;;;;;;;;5013112;28;20026;-83
2021/11/27 10:43:00;;;;;;;6.22;2.72;;;;;;;;;;5013105;28;20439;-81
2021/11/27 10:45:28;;;;;;;6.78;3.42;;;;;;;;;;5013043;28;20018;-83
2021/11/27 10:48:14;;;;;;;4.40;4.00;;;;;;;;;;5012804;28;20561;-82
2021/11/27 10:50:40;;;;;;;4.43;3.05;;;;;;;;;;5026263;28;20156;-82
2021/11/27 10:53:13;;;;;;;3.65;3.20;;;;;;;;;;5032293;28;20164;-82
2021/11/27 10:55:40;;;;;;;3.95;3.75;;;;;;;;;;5032517;28;20060;-81
2021/11/27 10:58:06;;;;;;;18.65;10.00;;;;;;;;;;5032507;28;20047;-80
2021/11/27 11:00:36;;;;;;;3.55;3.33;;;;;;;;;;5032425;28;20064;-80
2021/11/27 11:03:02;;;;;;;4.90;4.60;;;;;;;;;;5032238;28;20021;-79
2021/11/27 11:05:34;;;;;;;9.65;6.28;;;;;;;;;;5032486;28;20017;-81
2021/11/27 11:08:00;;;;;;;12.02;6.50;;;;;;;;;;5029925;28;20071;-81
2021/11/27 11:10:36;;;;;;;6.15;4.05;;;;;;;;;;5026419;28;20030;-80
2021/11/27 11:13:03;;;;;;;26.40;20.75;;;;;;;;;;5032068;28;20021;-84
2021/11/27 11:15:29;;;;;;;14.75;11.60;;;;;;;;;;5031842;28;20021;-81
2021/11/27 11:18:08;;;;;;;5.47;4.97;;;;;;;;;;5031992;28;20451;-80
2021/11/27 11:20:34;;;;;;;5.00;4.53;;;;;;;;;;5033189;28;20124;-81
2021/11/27 11:23:01;;;;;;;4.60;4.28;;;;;;;;;;5033188;28;20481;-82
2021/11/27 11:25:27;;;;;;;3.03;2.83;;;;;;;;;;5032159;28;20087;-82
2021/11/27 11:27:53;;;;;;;7.30;2.50;;;;;;;;;;5031932;28;20021;-81
2021/11/27 11:30:22;;;;;;;4.28;3.70;;;;;;;;;;5031026;28;20032;-80
2021/11/27 11:32:48;;;;;;;11.07;8.80;;;;;;;;;;5038568;28;20024;-81
2021/11/27 11:35:14;;;;;;;5.20;3.22;;;;;;;;;;5048995;28;20025;-81
2021/11/27 11:37:41;;;;;;;5.05;3.13;;;;;;;;;;5051082;28;20017;-81
2021/11/27 11:40:08;;;;;;;1.73;1.63;;;;;;;;;;5052859;28;20053;-82
2021/11/27 11:42:34;;;;;;;8.68;4.45;;;;;;;;;;5051749;28;20083;-82
2021/11/27 11:44:59;;;;;;;8.27;5.45;;;;;;;;;;5051834;28;20071;-80
2021/11/27 11:47:25;;;;;;;11.13;5.97;;;;;;;;;;5051691;28;20499;-82
2021/11/27 11:50:00;;;;;;;9.10;5.95;;;;;;;;;;5047558;28;20492;-82
2021/11/27 11:52:37;;;;;;;5.50;3.83;;;;;;;;;;5032509;28;20104;-82
2021/11/27 11:55:09;;;;;;;10.90;8.32;;;;;;;;;;5031437;28;20100;-81
2021/11/27 11:58:07;;;;;;;11.27;6.90;;;;;;;;;;5031536;28;20081;-81
2021/11/27 12:00:32;;;;;;;22.58;9.38;;;;;;;;;;5019774;28;20069;-80
2021/11/27 12:03:12;;;;;;;18.02;11.10;;;;;;;;;;5032943;28;20056;-82
2021/11/27 12:05:56;;;;;;;6.55;5.32;;;;;;;;;;5031654;28;20048;-83
2021/11/27 12:08:40;;;;;;;7.00;4.60;;;;;;;;;;5031407;28;20018;-81
2021/11/27 12:11:05;;;;;;;5.50;4.97;;;;;;;;;;5031540;28;20080;-81
2021/11/27 12:13:33;;;;;;;6.82;6.15;;;;;;;;;;5031560;28;20470;-82
2021/11/27 12:16:03;;;;;;;4.63;3.70;;;;;;;;;;5031601;28;20032;-84
2021/11/27 12:18:28;;;;;;;11.63;7.90;;;;;;;;;;5032325;28;20030;-83
2021/11/27 12:20:57;;;;;;;8.68;6.00;;;;;;;;;;5031402;28;20113;-82
2021/11/27 12:23:25;;;;;;;9.73;8.75;;;;;;;;;;5031492;28;20028;-81
2021/11/27 12:28:34;;;;;;;44.42;33.42;;;;;;;;;;5032446;28;20444;-82
2021/11/27 12:31:01;;;;;;;9.83;7.23;;;;;;;;;;5032493;28;20048;-81
2021/11/27 12:33:45;;;;;;;5.53;4.75;;;;;;;;;;5031339;28;20318;-82
2021/11/27 12:36:29;;;;;;;13.77;9.43;;;;;;;;;;5030879;28;20017;-82
2021/11/27 12:39:07;;;;;;;7.22;5.95;;;;;;;;;;5030762;28;20046;-82
2021/11/27 12:41:40;;;;;;;10.27;6.97;;;;;;;;;;5031600;28;20034;-82
2021/11/27 12:44:19;;;;;;;5.65;5.07;;;;;;;;;;5035918;28;20025;-81
2021/11/27 12:46:47;;;;;;;4.57;3.80;;;;;;;;;;5035408;28;20497;-81
2021/11/27 12:49:31;;;;;;;3.13;2.67;;;;;;;;;;5035259;28;20075;-81
2021/11/27 12:52:14;;;;;;;4.00;3.65;;;;;;;;;;5034474;28;20025;-81
2021/11/27 12:54:40;;;;;;;5.65;5.28;;;;;;;;;;5034240;28;20021;-81
2021/11/27 12:57:06;;;;;;;13.20;5.60;;;;;;;;;;5034660;28;20017;-80
2021/11/27 12:59:32;;;;;;;7.23;6.50;;;;;;;;;;5034663;28;20125;-81
2021/11/27 13:01:57;;;;;;;7.32;5.68;;;;;;;;;;5034649;28;20252;-81
2021/11/27 13:04:23;;;;;;;6.38;5.53;;;;;;;;;;5034461;28;20017;-81
2021/11/27 13:06:52;;;;;;;8.68;5.90;;;;;;;;;;5034726;28;20030;-81
2021/11/27 13:09:18;;;;;;;4.90;4.45;;;;;;;;;;5034388;28;20035;-81
2021/11/27 13:11:47;;;;;;;11.80;5.35;;;;;;;;;;5034517;28;20028;-81
2021/11/27 13:14:22;;;;;;;13.48;5.40;;;;;;;;;;5035086;28;20052;-80
2021/11/27 13:16:48;;;;;;;5.85;4.93;;;;;;;;;;5034309;28;20028;-81
2021/11/27 13:19:23;;;;;;;8.65;5.97;;;;;;;;;;5034378;28;20421;-80
2021/11/27 13:21:50;;;;;;;5.57;4.88;;;;;;;;;;5034111;28;20025;-81
2021/11/27 13:24:15;;;;;;;10.15;6.80;;;;;;;;;;5034332;28;20021;-81
2021/11/27 13:26:41;;;;;;;5.13;4.45;;;;;;;;;;5034310;28;20074;-82
2021/11/27 13:29:06;;;;;;;6.95;5.20;;;;;;;;;;5034098;28;20025;-80
2021/11/27 13:31:52;;;;;;;4.57;3.22;;;;;;;;;;5033956;28;20017;-80
2021/11/27 13:34:17;;;;;;;5.75;5.30;;;;;;;;;;5033403;28;20433;-79
2021/11/27 13:36:43;;;;;;;5.80;5.25;;;;;;;;;;5034362;28;20022;-80
2021/11/27 13:39:15;;;;;;;8.18;6.22;;;;;;;;;;5033586;28;20085;-80
2021/11/27 13:41:40;;;;;;;5.72;5.15;;;;;;;;;;5034422;28;20022;-81
2021/11/27 13:44:06;;;;;;;5.00;4.50;;;;;;;;;;5033958;28;20465;-82
2021/11/27 13:46:46;;;;;;;8.38;7.10;;;;;;;;;;5033915;28;20400;-83
2021/11/27 13:49:11;;;;;;;3.88;3.15;;;;;;;;;;5033701;28;20087;-83
2021/11/27 13:51:36;;;;;;;4.00;3.80;;;;;;;;;;5033988;28;20022;-83
2021/11/27 13:54:02;;;;;;;4.65;4.22;;;;;;;;;;5033587;28;20083;-82
2021/11/27 13:56:27;;;;;;;10.43;9.50;;;;;;;;;;5033866;28;20021;-83
2021/11/27 13:58:53;;;;;;;8.13;7.30;;;;;;;;;;5033764;28;20029;-81
2021/11/27 14:01:19;;;;;;;10.07;6.60;;;;;;;;;;5034120;28;20070;-81
2021/11/27 14:03:44;;;;;;;5.95;5.15;;;;;;;;;;5033778;28;20026;-81
2021/11/27 14:06:11;;;;;;;8.05;5.53;;;;;;;;;;5033187;28;20025;-82
2021/11/27 14:08:36;;;;;;;5.68;5.13;;;;;;;;;;5034070;28;20083;-82
2021/11/27 14:11:05;;;;;;;5.63;5.20;;;;;;;;;;5033486;28;20013;-81
2021/11/27 14:13:31;;;;;;;6.22;5.60;;;;;;;;;;5033464;28;20113;-81
2021/11/27 14:15:56;;;;;;;8.95;5.47;;;;;;;;;;5033371;28;20024;-80
2021/11/27 14:18:25;;;;;;;9.65;5.18;;;;;;;;;;5033420;28;20029;-84
2021/11/27 14:20:51;;;;;;;3.72;3.42;;;;;;;;;;5037860;28;20122;-82
2021/11/27 14:23:19;;;;;;;6.65;4.68;;;;;;;;;;5032082;28;20116;-81
2021/11/27 14:26:03;;;;;;;4.50;3.42;;;;;;;;;;5031258;28;20544;-82
2021/11/27 14:28:29;;;;;;;5.25;4.78;;;;;;;;;;5032986;28;20025;-82
2021/11/27 14:30:55;;;;;;;11.10;9.18;;;;;;;;;;5032497;28;20053;-82
2021/11/27 14:33:27;;;;;;;12.75;11.45;;;;;;;;;;5033050;28;20057;-81
2021/11/27 14:35:53;;;;;;;7.28;5.93;;;;;;;;;;5033021;28;20018;-82
2021/11/27 14:38:51;;;;;;;11.27;10.00;;;;;;;;;;5032626;28;20059;-82
2021/11/27 14:41:16;;;;;;;;;;;;;;;;;;5022581;28;20045;-83
2021/11/27 14:44:12;;;;;;;8.95;8.18;;;;;;;;;;5032898;28;19959;-81